Historique des stations

Station météo de Romilly-sur-Aigre

Altitude de la station : 111 m







Données météorologiques pour le 06/10/2022
Date
Heure
Températures Humidité Point de rosée Vitesse
du vent
Direction Rafales Windchill Pression Pluviométrie
Cumul
Date
Heure
Températures Humidité Point de rosée Vitesse
du vent
Direction Rafales Windchill Pression Pluviométrie
Cumul
06/10/2022 09:317.7 °C98 %7.4 °C---7.41031 hPa0.0 mm
06/10/2022 09:166.0 °C98 %5.7 °C---5.71031 hPa0.0 mm
06/10/2022 09:014.7 °C96 %4.1 °C---4.11031 hPa0.0 mm
06/10/2022 08:464.6 °C96 %4.0 °C---4.01030 hPa0.0 mm
06/10/2022 08:314.2 °C95 %3.5 °C---3.51030 hPa0.0 mm
06/10/2022 08:164.3 °C95 %3.6 °C---3.61030 hPa0.0 mm
06/10/2022 08:014.7 °C95 %3.9 °C---3.91030 hPa0.0 mm
06/10/2022 07:464.8 °C95 %4.1 °C---4.11030 hPa0.0 mm
06/10/2022 07:314.9 °C95 %4.2 °C-NNO3 km/h4.21030 hPa0.0 mm
06/10/2022 07:165.2 °C95 %4.4 °C-NNO2 km/h4.41030 hPa0.0 mm
06/10/2022 07:015.5 °C95 %4.8 °C---4.81030 hPa0.0 mm
06/10/2022 06:465.7 °C95 %5.0 °C---5.01030 hPa0.0 mm
06/10/2022 06:315.8 °C94 %4.9 °C---4.91030 hPa0.0 mm
06/10/2022 06:166.2 °C94 %5.3 °C---5.31030 hPa0.0 mm
06/10/2022 06:016.7 °C94 %5.8 °C---5.81030 hPa0.0 mm
06/10/2022 05:466.9 °C94 %6.0 °C-NNO2 km/h6.01029 hPa0.0 mm
06/10/2022 05:317.3 °C94 %6.4 °C---6.41029 hPa0.0 mm
06/10/2022 05:167.7 °C94 %6.8 °C---6.81029 hPa0.0 mm
06/10/2022 05:017.7 °C94 %6.8 °C---6.81029 hPa0.0 mm
06/10/2022 04:467.8 °C93 %6.7 °C-NNO2 km/h6.71029 hPa0.0 mm
06/10/2022 04:317.9 °C92 %6.7 °C---6.71029 hPa0.0 mm
06/10/2022 04:168.4 °C92 %7.2 °C---7.21029 hPa0.0 mm
06/10/2022 04:018.9 °C92 %7.7 °C---7.71028 hPa0.0 mm
06/10/2022 03:469.3 °C90 %7.8 °C---7.81028 hPa0.0 mm
06/10/2022 03:319.9 °C90 %8.3 °C---8.31028 hPa0.0 mm
06/10/2022 03:1610.3 °C89 %8.6 °C---8.61028 hPa0.0 mm
06/10/2022 03:0110.9 °C88 %9.0 °C-NNO2 km/h9.01028 hPa0.0 mm
06/10/2022 02:4611.7 °C86 %9.4 °C2 km/hNNO5 km/h9.41028 hPa0.0 mm
06/10/2022 02:3112.3 °C85 %9.9 °C3 km/hNW6 km/h9.91028 hPa0.0 mm
06/10/2022 02:1612.8 °C85 %10.3 °C6 km/hNW18 km/h10.31028 hPa0.0 mm
06/10/2022 02:0113.3 °C88 %11.4 °C13 km/hNW18 km/h11.41027 hPa0.0 mm
06/10/2022 01:4613.6 °C90 %11.9 °C10 km/hNW16 km/h11.91027 hPa0.0 mm
06/10/2022 01:3113.7 °C90 %12.1 °C10 km/hNNO16 km/h12.11027 hPa0.0 mm
06/10/2022 01:1613.8 °C91 %12.4 °C15 km/hNNO18 km/h12.41027 hPa0.0 mm
06/10/2022 01:0114.1 °C91 %12.7 °C6 km/hO11 km/h12.71027 hPa0.0 mm
06/10/2022 00:4614.3 °C91 %12.8 °C3 km/hO10 km/h12.81026 hPa0.0 mm
06/10/2022 00:3114.3 °C91 %12.9 °C3 km/hO10 km/h12.91026 hPa0.0 mm
06/10/2022 00:1614.4 °C91 %13.0 °C5 km/hO10 km/h13.01026 hPa0.0 mm
06/10/2022 00:0114.6 °C90 %12.9 °C-NNO5 km/h12.91026 hPa0.0 mm


Minima :

Température : 4.2 °C
Humidité : 85 %
Point de rosée : 3.5 °C
Vent moyen : 2 km/h
Windchill : 3.5
Pression atm. : 1026 hPa
Maxima :

Température : 14.6 °C
Humidité : 98 %
Point de rosée : 13.0 °C
Vent moyen : 15 km/h
Windchill : 13.0
Pression atm. : 1031 hPa
Rafales max : 18 km/h
Cumul de pluie sur 24H : 0 mm

Romilly-sur-Aigre est une commune du département Eure-et-Loir (28).
La station météorologique du réseau de l'association la plus proche de Romilly-sur-Aigre est celle de Mainvilliers
Site du propriétaire de la station : http://www.sohade.fr



Icône Facebook Association Météo Centre Icône Twitter Association Météo Centre Icône Chaîne Youtube Association Météo Centre Icône contact Association Météo Centre Icône Insta Association Météo Centre